createdAt,value
2022-09-12T00:00:00.293Z,12.1
2022-09-12T00:10:00.238Z,12.0
2022-09-12T00:20:00.227Z,12.1
2022-09-12T00:30:00.230Z,12.2
2022-09-12T00:40:00.595Z,12.1
2022-09-12T00:50:00.231Z,12.0
2022-09-12T01:00:00.219Z,11.9
2022-09-12T01:10:00.237Z,11.9
2022-09-12T01:20:00.233Z,11.9
2022-09-12T01:30:00.210Z,11.9
2022-09-12T01:40:00.306Z,11.8
2022-09-12T01:50:00.286Z,11.8
2022-09-12T02:00:00.254Z,11.8
2022-09-12T02:10:00.248Z,11.8
2022-09-12T02:20:00.227Z,11.7
2022-09-12T02:30:00.236Z,11.6
2022-09-12T02:40:00.353Z,11.5
2022-09-12T02:50:00.310Z,11.4
2022-09-12T03:00:00.241Z,11.3
2022-09-12T03:10:00.253Z,11.3
2022-09-12T03:20:00.232Z,11.3
2022-09-12T03:30:00.260Z,11.2
2022-09-12T03:40:00.297Z,11.2
2022-09-12T03:50:00.282Z,11.1
2022-09-12T04:00:00.221Z,11.1
2022-09-12T04:10:00.285Z,11.2
2022-09-12T04:20:00.245Z,11.3
2022-09-12T04:30:00.232Z,11.4
2022-09-12T04:40:00.349Z,11.4
2022-09-12T04:50:00.331Z,11.4
2022-09-12T05:00:02.798Z,11.4
2022-09-12T05:10:00.230Z,11.4
2022-09-12T05:20:00.222Z,11.3
2022-09-12T05:30:00.357Z,11.4
2022-09-12T05:40:00.304Z,11.6
2022-09-12T05:50:00.312Z,11.9
2022-09-12T06:00:00.224Z,12.3
2022-09-12T06:10:00.496Z,12.6
2022-09-12T06:20:00.242Z,13.2
2022-09-12T06:30:00.361Z,13.7
2022-09-12T06:40:01.697Z,14.4
2022-09-12T07:00:00.302Z,15.8
2022-09-12T07:10:00.241Z,15.9
2022-09-12T07:20:00.341Z,16.7
2022-09-12T07:30:00.231Z,17.4
2022-09-12T07:40:00.305Z,18.0
2022-09-12T07:50:00.257Z,18.6
2022-09-12T08:00:00.283Z,19.2
2022-09-12T08:10:00.238Z,19.8
2022-09-12T08:20:00.244Z,20.1
2022-09-12T08:30:00.247Z,20.2
2022-09-12T08:40:00.338Z,20.4
2022-09-12T08:50:00.245Z,20.6
2022-09-12T09:00:00.313Z,20.6
2022-09-12T09:10:00.219Z,20.6
2022-09-12T09:20:00.226Z,20.6
2022-09-12T09:30:00.253Z,20.9
2022-09-12T09:40:00.262Z,20.7
2022-09-12T09:50:00.221Z,20.6
2022-09-12T10:00:00.248Z,20.6
2022-09-12T10:10:00.300Z,20.7
2022-09-12T10:20:17.795Z,20.8
2022-09-12T10:30:00.247Z,20.8
2022-09-12T10:40:00.336Z,21.1
2022-09-12T10:50:00.210Z,21.2
2022-09-12T11:00:00.473Z,21.4
2022-09-12T11:10:00.251Z,21.7
2022-09-12T11:20:00.300Z,21.9
2022-09-12T11:30:00.217Z,22.1
2022-09-12T11:40:00.288Z,22.0
2022-09-12T11:50:00.193Z,22.0
2022-09-12T12:00:00.253Z,21.8
2022-09-12T12:10:00.235Z,21.8
2022-09-12T12:20:04.893Z,22.1
2022-09-12T12:30:00.302Z,22.4
2022-09-12T12:40:00.488Z,22.1
2022-09-12T12:50:00.245Z,21.9
2022-09-12T13:00:00.241Z,21.7
2022-09-12T13:10:00.239Z,21.4
2022-09-12T13:20:17.172Z,21.2
2022-09-12T13:30:00.259Z,20.9
2022-09-12T13:40:00.326Z,20.8
2022-09-12T13:50:00.257Z,21.0
2022-09-12T14:00:00.247Z,21.2
2022-09-12T14:10:00.211Z,21.5
2022-09-12T14:20:00.269Z,21.4
2022-09-12T14:30:00.245Z,21.4
2022-09-12T14:40:00.331Z,21.0
2022-09-12T14:50:00.289Z,20.7
2022-09-12T15:00:00.243Z,20.4
2022-09-12T15:10:00.237Z,20.2
2022-09-12T15:20:00.223Z,20.2
2022-09-12T15:30:00.554Z,19.9
2022-09-12T15:40:00.369Z,19.9
2022-09-12T15:50:00.368Z,19.9
2022-09-12T16:00:00.283Z,19.8
2022-09-12T16:10:00.260Z,19.7
2022-09-12T16:20:00.228Z,19.3
2022-09-12T16:30:00.205Z,19.1
2022-09-12T16:40:00.320Z,18.9
2022-09-12T16:50:00.265Z,18.7
2022-09-12T17:00:00.254Z,18.5
2022-09-12T17:10:00.318Z,18.3
2022-09-12T17:20:00.245Z,18.0
2022-09-12T17:30:00.250Z,17.7
2022-09-12T17:40:00.391Z,17.5
2022-09-12T17:50:14.740Z,17.2
2022-09-12T18:00:00.236Z,17.1
2022-09-12T18:10:00.231Z,16.9
2022-09-12T18:20:00.880Z,16.8
2022-09-12T18:30:19.890Z,16.6
2022-09-12T18:40:00.343Z,16.5
2022-09-12T18:50:00.222Z,16.3
2022-09-12T19:00:00.241Z,16.1
2022-09-12T19:10:00.241Z,16.0
2022-09-12T19:20:00.241Z,15.8
2022-09-12T19:30:00.281Z,15.7
2022-09-12T19:40:00.334Z,15.6
2022-09-12T19:50:00.241Z,15.4
2022-09-12T20:00:00.300Z,15.2
2022-09-12T20:10:00.247Z,15.1
2022-09-12T20:20:00.286Z,14.9
2022-09-12T20:30:00.238Z,14.7
2022-09-12T20:40:00.389Z,14.6
2022-09-12T20:50:00.243Z,14.6
2022-09-12T21:00:00.253Z,14.5
2022-09-12T21:10:00.233Z,14.4
2022-09-12T21:20:00.248Z,14.3
2022-09-12T21:30:00.247Z,14.1
2022-09-12T21:40:00.331Z,14.1
2022-09-12T21:50:00.297Z,14.0
2022-09-12T22:00:00.255Z,13.8
2022-09-12T22:10:00.231Z,13.8
2022-09-12T22:20:00.230Z,13.6
2022-09-12T22:30:00.218Z,13.6
2022-09-12T22:40:00.321Z,13.4
2022-09-12T22:50:00.216Z,13.3
2022-09-12T23:00:00.281Z,13.2
2022-09-12T23:10:00.245Z,13.1
2022-09-12T23:20:00.195Z,13.0
2022-09-12T23:30:00.204Z,12.9
2022-09-12T23:40:00.282Z,12.9
2022-09-12T23:50:00.485Z,12.8
